• Join FlightAware (Why Join?)
  • Login
  • US Flag 
08:05AM EST


 

Airport Tracker/Info


-or-


 

Live Flight TrackerFlight Track Log ✈ AAL1459 ✈ 02-Jul-2013 ✈ KORD - KRNO

Flight Track Log - Related Links

Times and Time Zones

All times are in EDT time to prevent confusion due to time zone crossing. See the AAL1459 flight status page for this flight to view local times or setup timezone preferences in your user account.

Time Position Orientation Groundspeed Altitude Reporting Facility
EDT Latitude Longitude Course Direction KTS MPH feet Rate Location/Type
07:49PM 41.9820 -87.9230 320° Northwest 145 167  Level FlightAware
07:49PM 41.9900 -87.9330 317° Northwest 162 186 900 2,640 Climbing FlightAware
07:50PM 42.0060 -87.9540 316° Northwest 172 198 1,900 1,680 Climbing FlightAware
07:50PM 42.0240 -87.9750 319° Northwest 200 230 2,500 1,380 Climbing FlightAware
07:51PM 42.0480 -87.9990 323° Northwest 234 269 3,200 1,740 Climbing FlightAware
07:51PM 42.0720 -88.0240 322° Northwest 257 296 4,100 1,680 Climbing FlightAware
07:52PM 42.0950 -88.0460 325° Northwest 273 314 4,700 2,460 Climbing FlightAware
07:52PM 42.1310 -88.0780 327° Northwest 274 315 6,400 2,880 Climbing FlightAware
07:53PM 42.1560 -88.1120 315° West 283 326 7,600 2,580 Climbing FlightAware
07:53PM 42.1610 -88.1380 285° West 285 328 8,300 2,700 Climbing FlightAware
07:53PM 42.1600 -88.1880 268° West 290 334 9,500 2,580 Climbing FlightAware
07:54PM 42.1570 -88.2600 267° West 295 339 11,300 2,520 Climbing FlightAware
07:55PM 42.1550 -88.3380 268° West 305 351 13,000 2,640 Climbing FlightAware
07:55PM 42.1530 -88.4250 268° West 311 358 15,100 2,400 Climbing FlightAware
07:56PM 42.1520 -88.5000 269° West 326 375 16,400 1,500 Climbing FlightAware
07:57PM 42.1500 -88.6020 269° West 369 425 17,300 1,380 Climbing FlightAware
07:57PM 42.1490 -88.6900 269° West 388 447 18,400 1,860 Climbing FlightAware
07:58PM 42.1460 -88.7990 268° West 400 460 19,900 2,040 Climbing FlightAware
07:59PM 42.1430 -88.8940 268° West 407 468 21,200 1,920 Climbing FlightAware
08:00PM 42.1400 -89.0130 268° West 419 482 22,600 1,800 Climbing FlightAware
08:00PM 42.1380 -89.1190 269° West 424 488 23,900 1,680 Climbing FlightAware
08:01PM 42.1360 -89.2350 269° West 434 499 25,000 1,500 Climbing FlightAware
08:02PM 42.1340 -89.3400 269° West 439 505 26,000 1,560 Climbing FlightAware
08:02PM 42.1310 -89.4660 268° West 443 510 27,200 1,560 Climbing FlightAware
08:03PM 42.1280 -89.5690 268° West 446 513 28,200 1,440 Climbing FlightAware
08:04PM 42.1260 -89.6680 268° West 448 516 29,000 1,380 Climbing FlightAware
08:04PM 42.1230 -89.8040 268° West 448 516 30,200 1,440 Climbing FlightAware
08:05PM 42.1220 -89.9100 269° West 447 514 31,100 1,260 Climbing FlightAware
08:06PM 42.1210 -90.0210 269° West 449 517 31,900 1,200 Climbing FlightAware
08:06PM 42.1200 -90.1380 269° West 448 516 32,800 1,260 Climbing FlightAware
08:07PM 42.1190 -90.2640 269° West 446 513 33,800 1,200 Climbing FlightAware
08:08PM 42.1230 -90.3880 273° West 444 511 34,600 1,020 Climbing FlightAware
08:09PM 42.1310 -90.4870 276° West 444 511 35,200 960 Climbing FlightAware
08:09PM 42.1400 -90.5980 276° West 444 511 35,900 600 Climbing FlightAware
08:10PM 42.1480 -90.7050 276° West 444 511 36,000 60 Climbing FlightAware
08:10PM 42.1560 -90.8040 276° West 441 507 36,000  Level FlightAware
08:11PM 42.1650 -90.9210 276° West 439 505 36,000  Level FlightAware
08:12PM 42.1720 -91.0250 275° West 438 504 36,000  Level FlightAware
08:13PM 42.1790 -91.1310 275° West 438 504 36,000  Level FlightAware
08:13PM 42.1870 -91.2390 276° West 437 503 36,000  Level FlightAware
08:14PM 42.1960 -91.3720 275° West 441 507 36,000  Level FlightAware
08:15PM 42.2040 -91.4870 275° West 442 509 36,000  Level FlightAware
08:15PM 42.2120 -91.5970 276° West 444 511 36,000  Level FlightAware
08:16PM 42.2200 -91.7220 275° West 447 514 36,000  Level FlightAware
08:17PM 42.2280 -91.8400 275° West 447 514 36,000  Level FlightAware
08:18PM 42.2360 -91.9580 275° West 447 514 36,000  Level FlightAware
08:18PM 42.2430 -92.0750 275° West 447 514 36,000  Level FlightAware
08:19PM 42.2500 -92.1840 275° West 447 514 36,000  Level FlightAware
08:20PM 42.2570 -92.2990 275° West 449 517 36,000  Level FlightAware
08:20PM 42.2640 -92.4140 275° West 450 518 36,000  Level FlightAware
08:21PM 42.2720 -92.5410 275° West 452 520 36,000  Level FlightAware
08:22PM 42.2790 -92.6620 275° West 453 521 36,000  Level FlightAware
08:22PM 42.2850 -92.7620 275° West 453 521 36,000  Level FlightAware
08:23PM 42.2920 -92.8970 274° West 456 525 36,000  Level FlightAware
08:24PM 42.2990 -93.0180 275° West 457 526 36,000  Level FlightAware
08:24PM 42.3050 -93.1370 274° West 458 527 36,000  Level FlightAware
08:25PM 42.3120 -93.2520 275° West 458 527 36,000  Level FlightAware
08:26PM 42.3180 -93.3660 274° West 458 527 36,000  Level FlightAware
08:26PM 42.3234 -93.4739 274° West 458 527 36,000  Level FlightAware ADS-B
08:27PM 42.3279 -93.5623 274° West 459 528 36,000  Level FlightAware ADS-B
08:27PM 42.3321 -93.6518 274° West 460 529 36,000  Level FlightAware ADS-B
08:28PM 42.3363 -93.7380 274° West 461 531 36,000  Level FlightAware ADS-B
08:29PM 42.3405 -93.8254 274° West 461 531 36,000  Level FlightAware ADS-B
08:29PM 42.3450 -93.9203 274° West 463 533 36,000  Level FlightAware ADS-B
08:30PM 42.3492 -94.0097 274° West 468 539 36,000  Level FlightAware ADS-B
08:30PM 42.3534 -94.0999 274° West 469 540 36,000  Level FlightAware ADS-B
08:31PM 42.3578 -94.2000 273° West 470 541 36,000  Level FlightAware ADS-B
08:31PM 42.3617 -94.2884 273° West 471 542 36,000  Level FlightAware ADS-B
08:32PM 42.3655 -94.3766 273° West 472 543 36,000  Level FlightAware ADS-B
08:32PM 42.3696 -94.4708 273° West 472 543 36,000  Level FlightAware ADS-B
08:33PM 42.3734 -94.5600 273° West 472 543 36,000  Level FlightAware ADS-B
08:33PM 42.3774 -94.6507 273° West 471 542 36,000  Level FlightAware ADS-B
08:34PM 42.3811 -94.7418 273° West 471 542 36,000  Level FlightAware ADS-B
08:34PM 42.3845 -94.8307 273° West 469 540 36,000  Level FlightAware ADS-B
08:35PM 42.3878 -94.9193 273° West 468 539 36,000  Level FlightAware ADS-B
08:35PM 42.3911 -95.0080 273° West 468 539 36,000  Level FlightAware ADS-B
08:36PM 42.3945 -95.0959 273° West 467 537 36,000  Level FlightAware ADS-B
08:36PM 42.3978 -95.1840 273° West 467 537 36,000  Level FlightAware ADS-B
08:37PM 42.4009 -95.2739 273° West 467 537 36,000  Level FlightAware ADS-B
08:37PM 42.4042 -95.3616 273° West 467 537 36,000  Level FlightAware ADS-B
08:38PM 42.4074 -95.4566 273° West 466 536 36,000  Level FlightAware ADS-B
08:38PM 42.4102 -95.5441 273° West 467 537 36,000  Level FlightAware ADS-B
08:39PM 42.4130 -95.6318 273° West 470 541 36,000  Level FlightAware ADS-B
08:39PM 42.4158 -95.7201 272° West 470 541 36,000  Level FlightAware ADS-B
08:40PM 42.4185 -95.8088 272° West 471 542 36,000  Level FlightAware ADS-B
08:40PM 42.4211 -95.8980 272° West 470 541 36,000  Level FlightAware ADS-B
08:41PM 42.4239 -95.9946 272° West 471 542 36,000  Level FlightAware ADS-B
08:42PM 42.4272 -96.1042 272° West 471 542 36,000  Level FlightAware ADS-B
08:42PM 42.4298 -96.1959 272° West 471 542 36,000  Level FlightAware ADS-B
08:42PM 42.4307 -96.2566 271° West 469 540 36,000  Level FlightAware ADS-B
08:43PM 42.4291 -96.2821 265° West 472 543 36,000  Level FlightAware ADS-B
08:43PM 42.4182 -96.3878 262° West 471 542 36,000  Level FlightAware ADS-B
08:44PM 42.4082 -96.4858 262° West 469 540 36,000  Level FlightAware ADS-B
08:44PM 42.3988 -96.5729 262° West 468 539 36,000 240 Level FlightAware ADS-B
08:45PM 42.3879 -96.6641 261° West 471 542 36,300 360 Climbing FlightAware ADS-B
08:45PM 42.3779 -96.7529 261° West 477 549 36,400 360 Climbing FlightAware ADS-B
08:46PM 42.3681 -96.8421 262° West 479 551 36,700 780 Climbing FlightAware ADS-B
08:46PM 42.3617 -96.9034 262° West 475 547 37,100 960 Climbing FlightAware ADS-B
08:46PM 42.3597 -96.9515 267° West 469 540 37,300 960 Climbing FlightAware ADS-B
08:47PM 42.3608 -96.9940 272° West 466 536 37,600 780 Climbing FlightAware ADS-B
08:47PM 42.3661 -97.0826 275° West 465 535 37,900 360 Climbing FlightAware ADS-B
08:48PM 42.3727 -97.1727 276° West 467 537 38,000 60 Climbing FlightAware ADS-B
08:48PM 42.3793 -97.2599 276° West 464 534 38,000  Level FlightAware ADS-B
08:49PM 42.3860 -97.3518 276° West 463 533 38,000  Level FlightAware ADS-B
08:49PM 42.3919 -97.4382 275° West 462 532 38,000  Level FlightAware ADS-B
08:50PM 42.3977 -97.5250 275° West 461 531 38,000  Level FlightAware ADS-B
08:50PM 42.4036 -97.6114 275° West 460 529 38,000  Level FlightAware ADS-B
08:51PM 42.4107 -97.7178 275° West 460 529 38,000  Level FlightAware ADS-B
08:51PM 42.4163 -97.8044 275° West 456 525 38,000  Level FlightAware ADS-B
08:52PM 42.4218 -97.8893 275° West 455 524 38,000  Level FlightAware ADS-B
08:53PM 42.4297 -98.0117 275° West 454 522 38,000  Level FlightAware ADS-B
08:53PM 42.4350 -98.0969 275° West 453 521 38,000  Level FlightAware ADS-B
08:54PM 42.4405 -98.1854 275° West 452 520 38,000  Level FlightAware ADS-B
08:54PM 42.4462 -98.2768 275° West 451 519 38,000  Level FlightAware ADS-B
08:55PM 42.4514 -98.3617 275° West 451 519 38,000  Level FlightAware ADS-B
08:57PM 42.4670 -98.7206 273° West 466 536 38,000  Level FlightAware ADS-B
08:57PM 42.4583 -98.8097 262° West 471 542 38,000  Level FlightAware ADS-B
08:58PM 42.4494 -98.8981 262° West 471 542 38,000  Level FlightAware ADS-B
08:58PM 42.4398 -98.9919 262° West 470 541 38,000  Level FlightAware ADS-B
09:01PM 42.3847 -99.5272 262° West 466 536 38,000  Level FlightAware ADS-B
09:02PM 42.3755 -99.6140 262° West 466 536 38,000  Level FlightAware ADS-B
09:02PM 42.3663 -99.7002 262° West 466 536 38,000  Level FlightAware ADS-B
09:03PM 42.3566 -99.7899 262° West 466 536 38,000  Level FlightAware ADS-B
09:03PM 42.3471 -99.8765 262° West 465 535 38,000  Level FlightAware ADS-B
09:04PM 42.3375 -99.9636 262° West 465 535 38,000  Level FlightAware ADS-B
09:05PM 42.3242 -100.0867 262° West 468 539 38,000  Level Minneapolis Center
09:06PM 42.3003 -100.2942 261° West 467 537 38,000  Level Minneapolis Center
09:07PM 42.2825 -100.4542 262° West 466 536 38,000  Level Denver Center
09:08PM 42.2633 -100.6189 261° West 465 535 38,000  Level Denver Center
09:09PM 42.2408 -100.8125 261° West 467 537 38,000  Level Denver Center
09:15PM 42.1103 -101.8790 261° West 473 544 38,000  Level FlightAware ADS-B
09:15PM 42.0989 -101.9680 260° West 471 542 38,000  Level FlightAware ADS-B
09:16PM 42.0869 -102.0600 260° West 468 539 38,000  Level FlightAware ADS-B
09:17PM 42.0760 -102.1460 260° West 464 534 38,000  Level FlightAware ADS-B
09:17PM 42.0643 -102.2350 260° West 459 528 38,000  Level FlightAware ADS-B
09:18PM 42.0532 -102.3200 260° West 458 527 38,000  Level FlightAware ADS-B
09:18PM 42.0423 -102.4040 260° West 458 527 38,000  Level FlightAware ADS-B
09:19PM 42.0310 -102.4900 260° West 457 526 38,000  Level FlightAware ADS-B
09:19PM 42.0197 -102.5730 260° West 456 525 38,000  Level FlightAware ADS-B
09:20PM 42.0084 -102.6560 260° West 453 521 38,000  Level FlightAware ADS-B
09:20PM 41.9970 -102.7410 260° West 450 518 38,000  Level FlightAware ADS-B
09:21PM 41.9850 -102.8300 260° West 449 517 38,000  Level FlightAware ADS-B
09:21PM 41.9738 -102.9120 260° West 448 516 38,000  Level FlightAware ADS-B
09:22PM 41.9625 -102.9940 260° West 447 514 38,000  Level FlightAware ADS-B
09:22PM 41.9492 -103.0900 259° West 447 514 38,000  Level FlightAware ADS-B
09:23PM 41.9372 -103.1760 259° West 447 514 38,000  Level FlightAware ADS-B
09:23PM 41.9257 -103.2590 259° West 453 521 38,000  Level FlightAware ADS-B
09:24PM 41.9140 -103.3420 259° West 457 526 38,000  Level FlightAware ADS-B
09:24PM 41.9015 -103.4300 259° West 460 529 38,000  Level FlightAware ADS-B
09:25PM 41.8952 -103.4800 260° West 455 524 38,000  Level FlightAware ADS-B
09:25PM 41.8930 -103.5170 265° West 449 517 38,000  Level FlightAware ADS-B
09:25PM 41.8905 -103.6000 268° West 447 514 38,000  Level FlightAware ADS-B
09:26PM 41.8877 -103.6840 267° West 447 514 38,000  Level FlightAware ADS-B
09:26PM 41.8848 -103.7690 267° West 447 514 38,000  Level FlightAware ADS-B
09:27PM 41.8819 -103.8570 267° West 446 513 38,000  Level FlightAware ADS-B
09:27PM 41.8790 -103.9410 267° West 446 513 38,000  Level FlightAware ADS-B
09:28PM 41.8763 -104.0240 268° West 447 514 38,000  Level FlightAware ADS-B
09:28PM 41.8733 -104.1090 267° West 447 514 38,000  Level FlightAware ADS-B
09:29PM 41.8702 -104.1930 267° West 449 517 38,000  Level FlightAware ADS-B
09:29PM 41.8670 -104.2760 267° West 450 518 38,000  Level FlightAware ADS-B
09:30PM 41.8638 -104.3610 267° West 451 519 38,000  Level FlightAware ADS-B
09:30PM 41.8605 -104.4460 267° West 452 520 38,000  Level FlightAware ADS-B
09:31PM 41.8571 -104.5310 267° West 453 521 38,000  Level FlightAware ADS-B
09:31PM 41.8537 -104.6160 267° West 454 522 38,000  Level FlightAware ADS-B
09:32PM 41.8502 -104.7020 267° West 455 524 38,000  Level FlightAware ADS-B
09:32PM 41.8466 -104.7880 267° West 455 524 38,000  Level FlightAware ADS-B
09:33PM 41.8429 -104.8740 267° West 452 520 38,000  Level FlightAware ADS-B
09:33PM 41.8392 -104.9590 267° West 452 520 38,000  Level FlightAware ADS-B
09:34PM 41.8355 -105.0430 267° West 452 520 38,000  Level FlightAware ADS-B
09:34PM 41.8317 -105.1290 267° West 452 520 38,000  Level FlightAware ADS-B
09:35PM 41.8278 -105.2150 267° West 453 521 38,000  Level FlightAware ADS-B
09:36PM 41.8220 -105.3340 266° West 455 524 38,000  Level FlightAware
09:36PM 41.8170 -105.4500 267° West 457 526 38,000  Level FlightAware
09:37PM 41.8110 -105.5580 266° West 456 525 38,000  Level FlightAware
09:38PM 41.8060 -105.6700 267° West 457 526 38,000  Level FlightAware
09:38PM 41.8000 -105.7810 266° West 457 526 38,000  Level FlightAware
09:39PM 41.7940 -105.8990 266° West 457 526 38,000  Level FlightAware
09:40PM 41.7880 -106.0210 266° West 459 528 38,000  Level FlightAware
09:40PM 41.7820 -106.1390 266° West 459 528 38,000  Level FlightAware
09:41PM 41.7750 -106.2590 266° West 459 528 38,000  Level FlightAware
09:42PM 41.7690 -106.3670 266° West 459 528 38,000  Level FlightAware
09:42PM 41.7630 -106.4720 266° West 457 526 38,000  Level FlightAware
09:43PM 41.7570 -106.5630 265° West 457 526 38,000  Level FlightAware
09:44PM 41.7500 -106.7010 266° West 456 525 38,000  Level FlightAware
09:44PM 41.7440 -106.7890 265° West 456 525 38,000  Level FlightAware
09:45PM 41.7380 -106.8780 265° West 456 525 38,000  Level FlightAware
09:46PM 41.7310 -106.9930 265° West 456 525 38,000  Level FlightAware
09:47PM 41.7220 -107.1310 265° West 456 525 38,000  Level FlightAware
09:47PM 41.7160 -107.2180 265° West 456 525 38,000  Level FlightAware
09:48PM 41.7090 -107.3330 265° West 456 525 38,000  Level FlightAware
09:49PM 41.7030 -107.4140 264° West 456 525 38,000  Level FlightAware
09:49PM 41.6970 -107.5050 265° West 456 525 38,000  Level FlightAware
09:50PM 41.6900 -107.6220 265° West 456 525 38,000  Level FlightAware
09:51PM 41.6840 -107.7080 265° West 456 525 38,000  Level FlightAware
09:51PM 41.6780 -107.7940 265° West 456 525 38,000  Level FlightAware
09:52PM 41.6710 -107.9070 265° West 456 525 38,000  Level FlightAware
09:53PM 41.6650 -107.9930 265° West 456 525 38,000  Level FlightAware
09:53PM 41.6600 -108.0790 266° West 456 525 38,000  Level FlightAware
09:54PM 41.6319 -108.4769 266° West 466 536 38,000  Level Denver Center
09:55PM 41.6181 -108.6686 265° West 464 534 38,000  Level Salt Lake Center
09:57PM 41.6056 -108.8339 264° West 468 539 38,000  Level Salt Lake Center
09:58PM 41.5914 -109.0242 264° West 468 539 38,000  Level Salt Lake Center
09:59PM 41.5881 -109.1878 268° West 470 541 38,000  Level Salt Lake Center
10:00PM 41.5808 -109.3753 267° West 462 532 38,000  Level Salt Lake Center
10:05PM 41.5490 -110.3070 267° West 446 513 38,000  Level FlightAware
10:06PM 41.5450 -110.4170 267° West 445 512 38,000  Level FlightAware
10:06PM 41.5410 -110.5270 267° West 445 512 38,000  Level FlightAware
10:07PM 41.5360 -110.6540 267° West 445 512 38,000  Level FlightAware
10:08PM 41.5310 -110.7620 266° West 443 510 38,000  Level FlightAware
10:08PM 41.5283 -110.8370 267° West 443 510 38,000  Level FlightAware ADS-B
10:09PM 41.5248 -110.9190 267° West 443 510 38,000  Level FlightAware ADS-B
10:09PM 41.5212 -111.0010 267° West 445 512 38,000  Level FlightAware ADS-B
10:10PM 41.5165 -111.1090 267° West 447 514 38,000  Level FlightAware ADS-B
10:11PM 41.5129 -111.1920 267° West 447 514 38,000  Level FlightAware ADS-B
10:11PM 41.5090 -111.2750 266° West 446 513 38,000  Level FlightAware ADS-B
10:12PM 41.5051 -111.3580 266° West 445 512 38,000  Level FlightAware ADS-B
10:12PM 41.5013 -111.4410 267° West 443 510 38,000  Level FlightAware ADS-B
10:13PM 41.4971 -111.5310 266° West 441 507 38,000  Level FlightAware ADS-B
10:13PM 41.4930 -111.6130 266° West 441 507 38,000  Level FlightAware ADS-B
10:14PM 41.4890 -111.6970 266° West 439 505 38,000  Level FlightAware ADS-B
10:14PM 41.4845 -111.7870 266° West 438 504 38,000  Level FlightAware ADS-B
10:15PM 41.4801 -111.8730 266° West 438 504 38,000  Level FlightAware ADS-B
10:15PM 41.4751 -111.9730 266° West 436 502 38,000  Level FlightAware ADS-B
10:16PM 41.4709 -112.0570 266° West 438 504 38,000  Level FlightAware ADS-B
10:16PM 41.4665 -112.1410 266° West 437 503 38,000  Level FlightAware ADS-B
10:17PM 41.4619 -112.2220 266° West 439 505 38,000  Level FlightAware ADS-B
10:17PM 41.4574 -112.3040 266° West 439 505 38,000  Level FlightAware ADS-B
10:18PM 41.4528 -112.3860 266° West 441 507 38,000  Level FlightAware ADS-B
10:18PM 41.4478 -112.4730 266° West 444 511 38,000  Level FlightAware ADS-B
10:19PM 41.4434 -112.5560 266° West 445 512 38,000  Level FlightAware ADS-B
10:19PM 41.4387 -112.6390 266° West 447 514 38,000  Level FlightAware ADS-B
10:20PM 41.4326 -112.7410 265° West 447 514 38,000  Level FlightAware ADS-B
10:21PM 41.4274 -112.8270 265° West 448 516 38,000  Level FlightAware ADS-B
10:21PM 41.4219 -112.9200 266° West 449 517 38,000  Level FlightAware ADS-B
10:22PM 41.4169 -113.0040 265° West 445 512 38,000  Level FlightAware ADS-B
10:22PM 41.4112 -113.0960 265° West 442 509 38,000  Level FlightAware ADS-B
10:22PM 41.4091 -113.1240 264° West 441 507 38,000  Level FlightAware ADS-B
10:23PM 41.4019 -113.1720 259° West 443 510 38,000  Level FlightAware ADS-B
10:23PM 41.3842 -113.2600 255° West 445 512 38,000  Level FlightAware ADS-B
10:24PM 41.3681 -113.3400 255° West 445 512 38,000  Level FlightAware ADS-B
10:24PM 41.3518 -113.4200 255° West 446 513 38,000  Level FlightAware ADS-B
10:25PM 41.3341 -113.5060 255° West 446 513 38,000  Level FlightAware ADS-B
10:25PM 41.3175 -113.5850 254° West 447 514 38,000  Level FlightAware ADS-B
10:26PM 41.3010 -113.6650 255° West 449 517 38,000  Level FlightAware ADS-B
10:26PM 41.2842 -113.7450 254° West 449 517 38,000  Level FlightAware ADS-B
10:27PM 41.2670 -113.8270 254° West 450 518 38,000  Level FlightAware ADS-B
10:27PM 41.2530 -113.8920 254° West 450 518 38,000  Level FlightAware
10:27PM 41.2471 -113.9230 256° West 451 519 38,000  Level FlightAware ADS-B
10:28PM 41.2292 -114.0070 254° West 456 525 38,000  Level FlightAware ADS-B
10:28PM 41.2120 -114.0890 254° West 458 527 38,000  Level FlightAware ADS-B
10:29PM 41.1944 -114.1700 254° West 459 528 38,000  Level FlightAware ADS-B
10:29PM 41.1768 -114.2520 254° West 455 524 38,000  Level FlightAware ADS-B
10:30PM 41.1594 -114.3330 254° West 454 522 38,000  Level FlightAware ADS-B
10:31PM 41.1388 -114.4290 254° West 454 522 38,000  Level FlightAware ADS-B
10:31PM 41.1209 -114.5120 254° West 455 524 38,000  Level FlightAware ADS-B
10:32PM 41.1033 -114.5930 254° West 455 524 38,000  Level FlightAware ADS-B
10:32PM 41.0834 -114.6840 254° West 453 521 38,000  Level FlightAware ADS-B
10:33PM 41.0662 -114.7640 254° West 449 517 38,000  Level FlightAware ADS-B
10:34PM 41.0250 -114.9480 254° West 446 513 38,000  Level FlightAware
10:34PM 41.0192 -114.9760 255° West 447 514 38,000  Level FlightAware ADS-B
10:35PM 40.9969 -115.0770 254° West 447 514 38,000  Level FlightAware ADS-B
10:35PM 40.9794 -115.1550 253° West 447 514 38,000  Level FlightAware ADS-B
10:36PM 40.9618 -115.2350 254° West 445 512 38,000  Level FlightAware ADS-B
10:36PM 40.9443 -115.3130 253° West 445 512 38,000  Level FlightAware ADS-B
10:37PM 40.9251 -115.3970 253° West 444 511 38,000  Level FlightAware ADS-B
10:37PM 40.9058 -115.4830 253° West 443 510 38,000  Level FlightAware ADS-B
10:38PM 40.8658 -115.6497 253° West 442 509 38,000  Level Salt Lake Center
10:39PM 40.8331 -115.7964 254° West 436 502 38,000  Level Salt Lake Center
10:40PM 40.7969 -115.9667 254° West 432 497 38,000  Level Salt Lake Center
10:42PM 40.7622 -116.1122 253° West 433 498 38,000  Level Salt Lake Center
10:43PM 40.7206 -116.2831 252° West 437 503 38,000  Level Salt Lake Center
10:44PM 40.6864 -116.4278 253° West 434 499 38,000  Level Salt Lake Center
10:45PM 40.6478 -116.5953 253° West 431 496 38,000  Level Salt Lake Center
10:46PM 40.6142 -116.7372 253° West 427 491 38,000  Level Salt Lake Center
10:47PM 40.5803 -116.8794 253° West 430 495 38,000  Level Salt Lake Center
10:48PM 40.5331 -117.0419 249° West 435 501 38,000 -420 Level Salt Lake Center
10:53PM 40.2110 -117.7750 249° West 458 527 35,400 -600 Descending FlightAware
10:54PM 40.1430 -117.9140 237° Southwest 459 528 34,400 -1,080 Descending FlightAware
10:55PM 40.0930 -118.0140 237° Southwest 448 516 33,600 -1,920 Descending FlightAware
10:55PM 40.0430 -118.1150 237° Southwest 446 513 31,600 -2,580 Descending FlightAware
10:56PM 39.9970 -118.2070 237° Southwest 455 524 30,000 -2,340 Descending FlightAware
10:57PM 39.9450 -118.3090 236° Southwest 450 518 28,300 -2,280 Descending FlightAware
10:57PM 39.9000 -118.4000 237° Southwest 439 505 26,800 -2,280 Descending FlightAware
10:58PM 39.8550 -118.4880 236° Southwest 433 498 25,300 -2,160 Descending FlightAware
10:59PM 39.8100 -118.5770 237° Southwest 418 481 23,900 -2,100 Descending FlightAware
11:00PM 39.7610 -118.6740 237° Southwest 412 474 22,300 -2,100 Descending FlightAware
11:00PM 39.7290 -118.7380 237° Southwest 405 466 21,200 -1,980 Descending FlightAware
11:01PM 39.6840 -118.8280 237° Southwest 399 459 19,800 -1,860 Descending FlightAware
11:02PM 39.6440 -118.9060 236° Southwest 389 448 18,600 -1,800 Descending FlightAware
11:02PM 39.6020 -118.9870 236° Southwest 373 429 17,400 -1,800 Descending FlightAware
11:03PM 39.5630 -119.0640 237° Southwest 366 421 16,100 -1,140 Descending FlightAware
11:04PM 39.5220 -119.1440 236° Southwest 366 421 15,800 -360 Descending FlightAware
11:04PM 39.4830 -119.2180 236° Southwest 375 432 15,600 -900 Descending FlightAware
11:05PM 39.4350 -119.3110 236° Southwest 382 440 14,500 -1,140 Descending FlightAware
11:06PM 39.3950 -119.3890 236° Southwest 371 427 13,900 -900 Descending FlightAware
11:07PM 39.3570 -119.4620 236° Southwest 361 415 13,300 -1,080 Descending FlightAware
11:07PM 39.3190 -119.5370 237° Southwest 334 384 12,400 -1,260 Descending FlightAware
11:08PM 39.2870 -119.6020 238° Southwest 302 348 11,600 -1,500 Descending FlightAware
11:09PM 39.2550 -119.6640 236° Southwest 296 341 10,400 -1,680 Descending FlightAware
11:09PM 39.2480 -119.6900 251° West 292 336 10,000 -1,380 Descending FlightAware
11:09PM 39.2610 -119.7340 291° West 289 333 9,400 -1,080 Descending FlightAware
11:10PM 39.2750 -119.7470 324° Northwest 283 326 9,300 -720 Descending FlightAware
11:10PM 39.3090 -119.7690 333° Northwest 260 299 8,900 -1,200 Descending FlightAware
11:11PM 39.3520 -119.7700 359° North 240 276 8,000 -1,320 Descending FlightAware
11:11PM 39.3820 -119.7690 North 205 236 7,500 -1,260 Descending FlightAware
11:11PM 39.3950 -119.7690 360° North 199 229 7,100 -1,500 Descending FlightAware
11:12PM 39.4340 -119.7690 360° North 181 208 6,000 -1,080 Descending FlightAware
11:13PM 39.4520 -119.7690 360° North 174 200 5,900 1,200 Descending FlightAware
11:13PM 39.4810 -119.7690 360° North 196 226 7,100 2,400 Climbing FlightAware
11:14PM 39.5070 -119.7680 North 207 238 8,300 1,800 Climbing FlightAware
11:14PM 39.5330 -119.7650 North 256 295 8,700 1,680 Climbing FlightAware
11:14PM 39.5610 -119.7510 21° North 283 326 9,700 1,260 Climbing FlightAware
11:15PM 39.5760 -119.7110 64° Northeast 270 311 9,800  Climbing FlightAware
11:16PM 39.5430 -119.6650 133° Southeast 270 311 9,700  Descending FlightAware
11:16PM 39.5120 -119.6610 174° South 263 303 9,800 120 Climbing FlightAware
11:16PM 39.4800 -119.6570 174° South 275 316 9,800  Level FlightAware
11:17PM 39.4430 -119.6540 176° South 273 314 9,800  Level FlightAware
11:17PM 39.4090 -119.6490 174° South 254 292 9,800  Level FlightAware
11:18PM 39.3790 -119.6450 174° South 237 273 9,800  Level FlightAware
11:18PM 39.3480 -119.6410 174° South 248 285 9,800  Level FlightAware
11:18PM 39.3350 -119.6400 177° South 248 285 9,800  Level FlightAware
11:19PM 39.2840 -119.6360 177° South 235 270 9,800  Level FlightAware
11:20PM 39.2580 -119.6330 175° South 233 268 9,800  Level FlightAware
11:20PM 39.2290 -119.6280 172° South 239 275 9,800  Level FlightAware
11:21PM 39.1890 -119.6530 206° Southwest 229 264 9,800  Level FlightAware
11:21PM 39.1880 -119.6640 263° West 221 254 9,800 -360 Level FlightAware
11:21PM 39.1940 -119.6980 283° West 206 237 9,600 -780 Descending FlightAware
11:22PM 39.2010 -119.7290 286° West 201 231 9,100 -1,020 Descending FlightAware
11:22PM 39.2080 -119.7450 299° West 196 226 8,900 -660 Descending FlightAware
11:22PM 39.2170 -119.7520 329° Northwest 196 226 8,800 -180 Descending FlightAware
11:23PM 39.2420 -119.7660 337° Northwest 209 241 8,800  Level FlightAware
11:23PM 39.2630 -119.7700 352° North 207 238 8,800 -480 Level FlightAware
11:24PM 39.3020 -119.7700 360° North 207 238 8,300 -1,020 Descending FlightAware
11:24PM 39.3170 -119.7700 360° North 201 231 7,900 -1,380 Descending FlightAware
11:25PM 39.3540 -119.7700 360° North 176 203 7,000 -1,200 Descending FlightAware
11:25PM 39.3710 -119.7700 360° North 153 176 6,600 -960 Descending FlightAware
11:26PM 39.3920 -119.7700 360° North 149 171 6,200 -900 Descending FlightAware
11:26PM 39.4090 -119.7700 360° North 153 176 5,800 -960 Descending FlightAware
11:26PM 39.4200 -119.7700 360° North 157 181 5,600 -960 Descending FlightAware
11:27PM 39.4420 -119.7690 North 154 177 5,100 -900 Descending FlightAware
11:27PM 39.4630 -119.7690 360° North 160 184 4,700 -900 Descending FlightAware
11:28PM 39.4830 -119.7690 360° North 161 185 4,300 -900 Descending FlightAware
11:28PM 39.5040 -119.7690 360° North 69 79 -7,380 Descending FlightAware
11:29PM 39.5100 -119.7690 360° North 26 30  Level FlightAware
11:29PM 39.5110 -119.7700 322° Northwest 15 17  Level FlightAware